Time;durP1;ratioP1;P1;durP2;ratioP2;P2;SDS_P1;SDS_P2;PMS_P1;PMS_P2;Temp;Humidity;BMP_temperature;BMP_pressure;BME280_temperature;BME280_humidity;BME280_pressure;Samples;Min_cycle;Max_cycle;Signal;HPM_P1;HPM_P2
2023/05/19 00:01:27;;;;;;;0.10;0.10;;;14.10;99.90;;;;;;5094733;28;20039;-89
2023/05/19 00:04:01;;;;;;;0.10;0.10;;;14.10;99.90;;;;;;5093576;28;20033;-89
2023/05/19 00:06:31;;;;;;;0.47;0.20;;;14.10;99.90;;;;;;5094095;28;20027;-89
2023/05/19 00:09:02;;;;;;;0.20;0.20;;;14.10;99.90;;;;;;5094623;28;20055;-89
2023/05/19 00:11:28;;;;;;;0.10;0.10;;;14.10;99.90;;;;;;5093052;28;20028;-90
2023/05/19 00:13:56;;;;;;;0.10;0.10;;;14.00;99.90;;;;;;5094378;28;20032;-89
2023/05/19 00:16:26;;;;;;;0.05;0.05;;;14.00;99.90;;;;;;5094359;28;20451;-89
2023/05/19 00:18:52;;;;;;;0.45;0.43;;;14.00;99.90;;;;;;5093140;28;20061;-89
2023/05/19 00:21:19;;;;;;;0.10;0.10;;;14.10;99.90;;;;;;5093836;28;20090;-89
2023/05/19 00:23:45;;;;;;;0.10;0.10;;;14.10;99.90;;;;;;5094320;28;20047;-88
2023/05/19 00:26:11;;;;;;;0.32;0.10;;;14.00;99.90;;;;;;5093021;28;20512;-89
2023/05/19 00:28:36;;;;;;;0.22;0.22;;;14.00;99.90;;;;;;5092508;28;20272;-90
2023/05/19 00:31:04;;;;;;;0.52;0.22;;;14.00;99.90;;;;;;5093195;28;20016;-89
2023/05/19 00:33:29;;;;;;;0.10;0.10;;;13.90;99.90;;;;;;5093617;28;20047;-89
2023/05/19 00:35:55;;;;;;;0.15;0.15;;;13.90;99.90;;;;;;5092174;28;20391;-89
2023/05/19 00:38:21;;;;;;;0.08;0.08;;;13.90;99.90;;;;;;5092996;28;20448;-89
2023/05/19 00:40:46;;;;;;;0.00;0.00;;;14.00;99.90;;;;;;5093864;28;20085;-89
2023/05/19 00:43:12;;;;;;;0.45;0.45;;;14.10;99.90;;;;;;5092415;28;20468;-89
2023/05/19 00:45:38;;;;;;;0.00;0.00;;;14.10;99.90;;;;;;5093793;28;20400;-89
2023/05/19 00:48:03;;;;;;;0.10;0.10;;;14.00;99.90;;;;;;5092364;28;20114;-89
2023/05/19 00:50:29;;;;;;;0.10;0.10;;;14.00;99.90;;;;;;5093568;28;20031;-89
2023/05/19 00:52:55;;;;;;;0.10;0.10;;;14.00;99.90;;;;;;5093490;28;20040;-89
2023/05/19 00:55:27;;;;;;;1.15;0.30;;;13.90;99.90;;;;;;5093648;28;20353;-89
2023/05/19 00:57:54;;;;;;;0.25;0.25;;;13.70;99.90;;;;;;5092164;28;20448;-89
2023/05/19 01:00:20;;;;;;;0.00;0.00;;;13.70;99.90;;;;;;5093657;28;20444;-89
2023/05/19 01:02:46;;;;;;;0.10;0.10;;;13.80;99.90;;;;;;5093544;28;20032;-89
2023/05/19 01:05:12;;;;;;;0.10;0.10;;;13.70;99.90;;;;;;5092404;28;20089;-89
2023/05/19 01:07:40;;;;;;;0.10;0.10;;;13.60;99.90;;;;;;5092045;28;20381;-90
2023/05/19 01:10:06;;;;;;;0.10;0.10;;;13.60;99.90;;;;;;5093226;28;20039;-89
2023/05/19 01:12:32;;;;;;;0.28;0.28;;;13.60;99.90;;;;;;5093170;28;20020;-89
2023/05/19 01:14:58;;;;;;;0.20;0.20;;;13.70;99.90;;;;;;5092661;28;20039;-89
2023/05/19 01:17:28;;;;;;;0.10;0.10;;;13.60;99.90;;;;;;5092930;28;20377;-90
2023/05/19 01:20:09;;;;;;;0.00;0.00;;;13.70;99.90;;;;;;5092918;28;20044;-89
2023/05/19 01:23:35;;;;;;;0.28;0.10;;;13.60;99.90;;;;;;5093202;28;20093;-89
2023/05/19 01:26:13;;;;;;;0.32;0.25;;;13.60;99.90;;;;;;4952646;29;20039;-89
2023/05/19 01:29:03;;;;;;;0.10;0.10;;;13.60;99.90;;;;;;4953088;29;20467;-89
2023/05/19 01:31:29;;;;;;;0.00;0.00;;;13.50;99.90;;;;;;4953031;29;20059;-89
2023/05/19 01:33:56;;;;;;;0.00;0.00;;;13.50;99.90;;;;;;4952502;29;20320;-89
2023/05/19 01:36:24;;;;;;;0.22;0.22;;;13.40;99.90;;;;;;4936613;29;20042;-89
2023/05/19 01:38:52;;;;;;;0.13;0.13;;;13.40;99.90;;;;;;4936187;29;20037;-89
2023/05/19 01:41:20;;;;;;;0.25;0.25;;;13.30;99.90;;;;;;4952556;29;20023;-90
2023/05/19 01:43:48;;;;;;;0.50;0.50;;;13.40;99.90;;;;;;4936457;29;20437;-89
2023/05/19 01:46:14;;;;;;;0.10;0.10;;;13.30;99.90;;;;;;4952351;29;20027;-88
2023/05/19 01:48:41;;;;;;;0.00;0.00;;;13.20;99.90;;;;;;4936462;29;20039;-89
2023/05/19 01:51:07;;;;;;;0.20;0.20;;;13.20;99.90;;;;;;4952643;29;20050;-89
2023/05/19 01:53:33;;;;;;;0.25;0.25;;;13.20;99.90;;;;;;4952658;29;20474;-89
2023/05/19 01:55:59;;;;;;;0.10;0.10;;;13.10;99.90;;;;;;4936426;29;20038;-90
2023/05/19 01:58:46;;;;;;;0.10;0.10;;;13.10;99.90;;;;;;4952272;29;20031;-89
2023/05/19 02:01:45;;;;;;;0.15;0.15;;;13.10;99.90;;;;;;4960512;28;20129;-89
2023/05/19 02:04:52;;;;;;;0.10;0.10;;;13.00;99.90;;;;;;5071164;28;20032;-89
2023/05/19 02:07:40;;;;;;;0.00;0.00;;;13.00;99.90;;;;;;4994562;28;20030;-90
2023/05/19 02:10:13;;;;;;;0.08;0.08;;;13.00;99.90;;;;;;5008370;28;20034;-89
2023/05/19 02:12:39;;;;;;;0.10;0.10;;;13.10;99.90;;;;;;5010883;28;20490;-89
2023/05/19 02:15:10;;;;;;;0.10;0.10;;;13.00;99.90;;;;;;5010548;28;20042;-89
2023/05/19 02:17:46;;;;;;;0.20;0.20;;;12.80;99.90;;;;;;5010423;28;20030;-89
2023/05/19 02:20:12;;;;;;;0.00;0.00;;;12.80;99.90;;;;;;5010683;28;20204;-90
2023/05/19 02:22:38;;;;;;;0.20;0.20;;;12.90;99.90;;;;;;4993919;28;20517;-89
2023/05/19 02:25:04;;;;;;;0.10;0.10;;;12.90;99.90;;;;;;4994856;28;20030;-89
2023/05/19 02:27:30;;;;;;;0.10;0.10;;;12.80;99.90;;;;;;4993996;28;20045;-89
2023/05/19 02:29:56;;;;;;;0.10;0.10;;;12.90;99.90;;;;;;5009989;28;20030;-89
2023/05/19 02:32:22;;;;;;;0.43;0.43;;;12.90;99.90;;;;;;5010610;28;20045;-89
2023/05/19 02:34:47;;;;;;;0.00;0.00;;;12.90;99.90;;;;;;5010349;28;20109;-89
2023/05/19 02:37:16;;;;;;;0.00;0.00;;;12.80;99.90;;;;;;4994274;28;20026;-89
2023/05/19 02:39:42;;;;;;;0.40;0.40;;;12.80;99.90;;;;;;5010769;28;20026;-90
2023/05/19 02:42:08;;;;;;;0.10;0.10;;;12.70;99.90;;;;;;5066198;28;20037;-89
2023/05/19 02:44:34;;;;;;;0.20;0.20;;;12.80;99.90;;;;;;5087358;28;20492;-89
2023/05/19 02:47:00;;;;;;;0.10;0.10;;;12.70;99.90;;;;;;5092472;28;20061;-89
2023/05/19 02:49:26;;;;;;;0.00;0.00;;;12.70;99.90;;;;;;5092209;28;20028;-89
2023/05/19 02:51:52;;;;;;;0.10;0.10;;;12.70;99.90;;;;;;5095303;28;20093;-89
2023/05/19 02:54:18;;;;;;;0.20;0.20;;;12.60;99.90;;;;;;5095904;28;20492;-89
2023/05/19 02:56:43;;;;;;;0.10;0.10;;;12.70;99.90;;;;;;5096363;28;20532;-90
2023/05/19 02:59:09;;;;;;;0.00;0.00;;;12.70;99.90;;;;;;5095582;28;20024;-89
2023/05/19 03:01:36;;;;;;;0.00;0.00;;;12.70;99.90;;;;;;5094724;28;20389;-89
2023/05/19 03:04:02;;;;;;;0.10;0.10;;;12.80;99.90;;;;;;5095788;28;20110;-89
2023/05/19 03:06:28;;;;;;;0.10;0.10;;;12.70;99.90;;;;;;5096068;28;20534;-89
2023/05/19 03:08:53;;;;;;;0.00;0.00;;;12.60;99.90;;;;;;5094257;28;20024;-89
2023/05/19 03:11:19;;;;;;;0.10;0.10;;;12.70;99.90;;;;;;5095529;28;20374;-89
2023/05/19 03:13:45;;;;;;;0.22;0.22;;;12.70;99.90;;;;;;5095121;28;20032;-89
2023/05/19 03:16:11;;;;;;;0.10;0.10;;;12.70;99.90;;;;;;5095889;28;20046;-89
2023/05/19 03:18:37;;;;;;;0.20;0.20;;;12.30;99.90;;;;;;5094468;28;20032;-89
2023/05/19 03:21:03;;;;;;;1.08;0.28;;;12.60;99.90;;;;;;5095259;28;20044;-89
2023/05/19 03:23:28;;;;;;;0.15;0.15;;;12.60;99.90;;;;;;5094370;28;20028;-89
2023/05/19 03:25:55;;;;;;;0.30;0.30;;;12.70;99.90;;;;;;5095369;28;20020;-89
2023/05/19 03:28:22;;;;;;;0.10;0.10;;;12.70;99.90;;;;;;5095045;28;20120;-90
2023/05/19 03:30:49;;;;;;;0.00;0.00;;;12.60;99.90;;;;;;5095774;28;20051;-89
2023/05/19 03:33:15;;;;;;;0.10;0.10;;;12.70;99.90;;;;;;5095115;28;20046;-89
2023/05/19 03:35:40;;;;;;;0.13;0.13;;;12.70;99.90;;;;;;5095374;28;20016;-89
2023/05/19 03:38:06;;;;;;;0.10;0.10;;;12.60;99.90;;;;;;5093989;28;20016;-89
2023/05/19 03:40:32;;;;;;;0.20;0.13;;;12.60;99.90;;;;;;5095144;28;20020;-89
2023/05/19 03:42:59;;;;;;;0.03;0.03;;;12.70;99.90;;;;;;5093310;28;20048;-89
2023/05/19 03:45:25;;;;;;;0.10;0.10;;;12.70;99.90;;;;;;5095045;28;20020;-88
2023/05/19 03:47:51;;;;;;;0.10;0.10;;;12.50;99.90;;;;;;5093556;28;20025;-89
2023/05/19 03:50:16;;;;;;;0.10;0.10;;;12.50;99.90;;;;;;5095304;28;20029;-89
2023/05/19 03:52:44;;;;;;;0.10;0.10;;;12.40;99.90;;;;;;5093956;28;20024;-89
2023/05/19 03:55:09;;;;;;;0.20;0.20;;;12.40;99.90;;;;;;5094662;28;20108;-90
2023/05/19 03:57:36;;;;;;;0.30;0.30;;;12.40;99.90;;;;;;5093448;28;20043;-89
2023/05/19 04:00:04;;;;;;;0.17;0.17;;;12.30;99.90;;;;;;5094902;28;20038;-89
2023/05/19 04:02:30;;;;;;;0.60;0.52;;;12.40;99.90;;;;;;5093862;28;20031;-90
2023/05/19 04:04:56;;;;;;;0.10;0.10;;;12.40;99.90;;;;;;5093720;28;20028;-89
2023/05/19 04:07:22;;;;;;;0.10;0.10;;;12.30;99.90;;;;;;5094938;28;20024;-89
2023/05/19 04:09:48;;;;;;;0.10;0.10;;;12.30;99.90;;;;;;5093429;28;20020;-89
2023/05/19 04:12:14;;;;;;;0.20;0.20;;;12.20;99.90;;;;;;5094248;28;20020;-89
2023/05/19 04:14:40;;;;;;;0.30;0.10;;;12.20;99.90;;;;;;5093628;28;20663;-89
2023/05/19 04:17:06;;;;;;;0.00;0.00;;;12.30;99.90;;;;;;5094875;28;20107;-89
2023/05/19 04:19:32;;;;;;;0.20;0.20;;;12.20;99.90;;;;;;5094240;28;20535;-90
2023/05/19 04:21:57;;;;;;;0.10;0.10;;;12.20;99.90;;;;;;5093213;28;20182;-89
2023/05/19 04:24:23;;;;;;;0.00;0.00;;;12.30;99.90;;;;;;5093327;28;20039;-89
2023/05/19 04:26:49;;;;;;;0.15;0.15;;;12.30;99.90;;;;;;5093095;28;20016;-89
2023/05/19 04:29:16;;;;;;;0.03;0.03;;;12.20;99.90;;;;;;5094350;28;20051;-90
2023/05/19 04:31:43;;;;;;;0.10;0.10;;;12.30;99.90;;;;;;5092706;28;20024;-90
2023/05/19 04:34:09;;;;;;;0.10;0.10;;;12.40;99.90;;;;;;5092801;28;20032;-89
2023/05/19 04:36:35;;;;;;;0.15;0.15;;;12.30;99.90;;;;;;5094207;28;20020;-89
2023/05/19 04:39:02;;;;;;;0.20;0.20;;;12.30;99.90;;;;;;5093817;28;20031;-90
2023/05/19 04:41:28;;;;;;;0.10;0.10;;;12.30;99.90;;;;;;5093581;28;20016;-89
2023/05/19 04:43:56;;;;;;;0.00;0.00;;;12.20;99.90;;;;;;5094097;28;20126;-89
2023/05/19 04:46:23;;;;;;;0.10;0.10;;;12.30;99.90;;;;;;5093955;28;20032;-90
2023/05/19 04:48:49;;;;;;;0.05;0.05;;;12.30;99.90;;;;;;5093730;28;20514;-89
2023/05/19 04:51:16;;;;;;;0.10;0.10;;;12.30;99.90;;;;;;5093728;28;20017;-89
2023/05/19 04:53:42;;;;;;;0.10;0.10;;;12.30;99.90;;;;;;5092683;28;20048;-89
2023/05/19 04:56:08;;;;;;;0.10;0.10;;;12.20;99.90;;;;;;5092281;28;20030;-89
2023/05/19 04:58:34;;;;;;;0.10;0.10;;;12.10;99.90;;;;;;5092762;28;20028;-89
2023/05/19 05:01:00;;;;;;;0.10;0.10;;;12.30;99.90;;;;;;5093791;28;20028;-89
2023/05/19 05:03:25;;;;;;;0.10;0.10;;;12.20;99.90;;;;;;5092570;28;20032;-89
2023/05/19 05:05:51;;;;;;;0.00;0.00;;;12.20;99.90;;;;;;5092712;28;20039;-90
2023/05/19 05:08:23;;;;;;;0.10;0.10;;;12.10;99.90;;;;;;5092447;28;20028;-89
2023/05/19 05:10:52;;;;;;;0.70;0.35;;;12.20;99.90;;;;;;5092708;28;20050;-89
2023/05/19 05:13:21;;;;;;;0.00;0.00;;;12.30;99.90;;;;;;5093487;28;20036;-89
2023/05/19 05:15:47;;;;;;;0.10;0.10;;;12.40;99.90;;;;;;5093524;28;20036;-89
2023/05/19 05:18:14;;;;;;;0.10;0.10;;;12.40;99.90;;;;;;5093212;28;20024;-89
2023/05/19 05:20:44;;;;;;;0.10;0.10;;;12.30;99.90;;;;;;5093294;28;20052;-89
2023/05/19 05:23:13;;;;;;;0.08;0.08;;;12.20;99.90;;;;;;5092394;28;20016;-88
2023/05/19 05:25:40;;;;;;;0.20;0.20;;;12.40;99.90;;;;;;5092794;28;20042;-89
2023/05/19 05:28:05;;;;;;;0.00;0.00;;;12.40;99.90;;;;;;5093017;28;20039;-90
2023/05/19 05:30:33;;;;;;;0.28;0.28;;;12.50;99.90;;;;;;5092018;28;20032;-90
2023/05/19 05:32:59;;;;;;;0.20;0.20;;;12.60;99.90;;;;;;5093166;28;20165;-89
2023/05/19 05:35:25;;;;;;;0.30;0.13;;;12.60;99.90;;;;;;5093223;28;20026;-90
2023/05/19 05:37:50;;;;;;;0.88;0.47;;;12.70;99.90;;;;;;5092740;28;20036;-90
2023/05/19 05:40:16;;;;;;;0.10;0.10;;;12.60;99.90;;;;;;5092588;28;20028;-89
2023/05/19 05:42:42;;;;;;;0.40;0.35;;;12.50;99.90;;;;;;5093021;28;20031;-90
2023/05/19 05:45:08;;;;;;;1.17;0.50;;;12.40;99.90;;;;;;5093213;28;20021;-88
2023/05/19 05:47:36;;;;;;;0.00;0.00;;;12.60;99.90;;;;;;5091680;28;20024;-89
2023/05/19 05:50:03;;;;;;;1.35;0.20;;;12.70;99.90;;;;;;5092743;28;20032;-88
2023/05/19 05:52:31;;;;;;;0.10;0.10;;;12.40;99.90;;;;;;5092623;28;20031;-89
2023/05/19 05:54:57;;;;;;;0.70;0.35;;;12.40;99.90;;;;;;5091187;28;20432;-90
2023/05/19 05:57:22;;;;;;;0.40;0.40;;;12.50;99.90;;;;;;5091622;28;20042;-88
2023/05/19 05:59:49;;;;;;;0.57;0.38;;;12.50;99.90;;;;;;5092478;28;20463;-88
2023/05/19 06:02:18;;;;;;;0.90;0.57;;;12.60;99.90;;;;;;5092875;28;20396;-88
2023/05/19 06:04:43;;;;;;;0.10;0.10;;;12.50;99.90;;;;;;5091800;28;20047;-89
2023/05/19 06:07:09;;;;;;;0.20;0.20;;;12.60;99.90;;;;;;5092580;28;20472;-89
2023/05/19 06:09:35;;;;;;;1.02;0.95;;;12.70;99.90;;;;;;5091520;28;20171;-89
2023/05/19 06:12:01;;;;;;;0.22;0.20;;;12.90;99.90;;;;;;5092487;28;20028;-89
2023/05/19 06:14:27;;;;;;;0.40;0.40;;;12.90;99.90;;;;;;5079796;28;20536;-90
2023/05/19 06:16:52;;;;;;;0.20;0.20;;;12.90;99.90;;;;;;5076592;28;20033;-90
2023/05/19 06:19:23;;;;;;;0.10;0.10;;;12.80;99.90;;;;;;5070837;28;20129;-90
2023/05/19 06:21:50;;;;;;;0.10;0.10;;;12.80;99.90;;;;;;5072416;28;20492;-88
2023/05/19 06:24:15;;;;;;;0.25;0.13;;;12.90;99.90;;;;;;5071327;28;20016;-89
2023/05/19 06:26:41;;;;;;;1.67;0.40;;;12.90;99.90;;;;;;5081082;28;20552;-89
2023/05/19 06:29:07;;;;;;;0.30;0.30;;;13.00;99.90;;;;;;5094982;28;20024;-89
2023/05/19 06:31:32;;;;;;;0.20;0.20;;;13.10;99.90;;;;;;5095641;28;20400;-90
2023/05/19 06:33:58;;;;;;;0.22;0.10;;;13.10;99.90;;;;;;5096403;28;20040;-89
2023/05/19 06:36:24;;;;;;;0.40;0.40;;;13.20;99.90;;;;;;5093897;28;20020;-86
2023/05/19 06:38:49;;;;;;;0.25;0.25;;;13.40;99.90;;;;;;5093847;28;20046;-86
2023/05/19 06:41:15;;;;;;;0.30;0.30;;;13.60;99.90;;;;;;5095739;28;20077;-84
2023/05/19 06:43:41;;;;;;;0.38;0.38;;;13.60;99.90;;;;;;5094918;28;20038;-86
2023/05/19 06:46:07;;;;;;;0.10;0.10;;;13.60;99.90;;;;;;5096043;28;20031;-86
2023/05/19 06:48:33;;;;;;;0.52;0.52;;;13.60;99.90;;;;;;5095676;28;20032;-87
2023/05/19 06:50:59;;;;;;;0.20;0.20;;;13.60;99.90;;;;;;5096074;28;20064;-89
2023/05/19 06:53:25;;;;;;;0.38;0.38;;;13.70;99.90;;;;;;5101480;28;20088;-88
2023/05/19 06:55:51;;;;;;;1.58;0.98;;;13.50;99.90;;;;;;5097289;28;20085;-89
2023/05/19 06:58:16;;;;;;;0.10;0.10;;;13.50;99.90;;;;;;5095428;28;20334;-87
2023/05/19 07:00:42;;;;;;;0.88;0.57;;;13.60;99.90;;;;;;5096188;28;20039;-92
2023/05/19 07:03:08;;;;;;;0.98;0.35;;;13.80;99.90;;;;;;5096458;28;20391;-88
2023/05/19 07:05:34;;;;;;;0.55;0.55;;;13.70;99.90;;;;;;5094316;28;20496;-88
2023/05/19 07:08:00;;;;;;;0.15;0.15;;;13.80;99.90;;;;;;5095191;28;20031;-84
2023/05/19 07:10:26;;;;;;;0.20;0.20;;;13.90;99.90;;;;;;5095254;28;20027;-84
2023/05/19 07:12:52;;;;;;;0.10;0.10;;;13.90;99.90;;;;;;5095120;28;20524;-85
2023/05/19 07:15:17;;;;;;;0.10;0.10;;;14.00;99.90;;;;;;5094568;28;20040;-84
2023/05/19 07:17:43;;;;;;;0.30;0.30;;;14.10;99.90;;;;;;5094997;28;20072;-84
2023/05/19 07:20:09;;;;;;;0.50;0.50;;;14.10;99.90;;;;;;5093927;28;20051;-84
2023/05/19 07:22:35;;;;;;;1.45;0.25;;;14.10;99.90;;;;;;5094028;28;20030;-84
2023/05/19 07:25:01;;;;;;;2.65;0.70;;;14.10;99.90;;;;;;5094526;28;20038;-84
2023/05/19 07:27:27;;;;;;;0.55;0.55;;;14.10;99.90;;;;;;5094832;28;20435;-84
2023/05/19 07:29:53;;;;;;;0.60;0.47;;;14.10;99.90;;;;;;5094853;28;20024;-84
2023/05/19 07:32:18;;;;;;;0.35;0.35;;;14.20;99.90;;;;;;5094790;28;20393;-84
2023/05/19 07:34:44;;;;;;;0.88;0.68;;;14.20;99.90;;;;;;5094263;28;20024;-84
2023/05/19 07:37:10;;;;;;;0.38;0.35;;;14.20;99.90;;;;;;5093156;28;20059;-84
2023/05/19 07:39:35;;;;;;;0.20;0.20;;;14.30;99.90;;;;;;5094723;28;20032;-85
2023/05/19 07:42:01;;;;;;;3.72;0.45;;;14.40;99.90;;;;;;5094997;28;20047;-84
2023/05/19 07:44:30;;;;;;;0.20;0.20;;;14.40;99.90;;;;;;5094300;28;20076;-84
2023/05/19 07:46:55;;;;;;;0.43;0.43;;;14.60;99.90;;;;;;5094419;28;20520;-84
2023/05/19 07:49:21;;;;;;;0.52;0.52;;;14.70;99.90;;;;;;5093896;28;20035;-84
2023/05/19 07:51:47;;;;;;;1.98;0.70;;;14.70;99.90;;;;;;5094408;28;20020;-84
2023/05/19 07:54:13;;;;;;;0.10;0.10;;;14.80;99.90;;;;;;5094348;28;20165;-84
2023/05/19 07:56:38;;;;;;;0.10;0.10;;;14.80;99.90;;;;;;5094695;28;20542;-84
2023/05/19 07:59:04;;;;;;;0.50;0.50;;;14.80;99.90;;;;;;5094321;28;20027;-84
2023/05/19 08:01:31;;;;;;;1.00;0.30;;;14.80;99.90;;;;;;5094181;28;20028;-84
2023/05/19 08:03:57;;;;;;;0.20;0.20;;;14.80;99.90;;;;;;5093958;28;20496;-84
2023/05/19 08:06:24;;;;;;;0.20;0.20;;;14.80;99.90;;;;;;5094303;28;20051;-84
2023/05/19 08:08:49;;;;;;;0.77;0.43;;;14.90;99.90;;;;;;5093977;28;20055;-84
2023/05/19 08:11:15;;;;;;;0.65;0.65;;;14.90;99.90;;;;;;5093893;28;20473;-84
2023/05/19 08:13:41;;;;;;;0.20;0.20;;;14.90;99.90;;;;;;5092768;28;20126;-84
2023/05/19 08:16:06;;;;;;;0.20;0.20;;;15.10;99.90;;;;;;5094000;28;20024;-84
2023/05/19 08:18:32;;;;;;;0.35;0.35;;;15.10;99.90;;;;;;5093217;28;20411;-84
2023/05/19 08:20:58;;;;;;;0.20;0.20;;;15.30;99.90;;;;;;5093700;27;20054;-85
2023/05/19 08:23:23;;;;;;;0.28;0.10;;;15.20;99.90;;;;;;5094143;28;20032;-84
2023/05/19 08:25:49;;;;;;;2.00;1.13;;;15.50;99.90;;;;;;5093664;28;20099;-84
2023/05/19 08:28:15;;;;;;;0.55;0.35;;;15.70;99.90;;;;;;5093580;28;20032;-84
2023/05/19 08:30:40;;;;;;;1.45;1.00;;;15.70;99.90;;;;;;5093616;28;20016;-84
2023/05/19 08:33:07;;;;;;;0.52;0.52;;;15.80;99.90;;;;;;5093115;28;20068;-84
2023/05/19 08:35:33;;;;;;;0.28;0.28;;;15.90;99.90;;;;;;5093393;28;20111;-84
2023/05/19 08:37:58;;;;;;;0.45;0.40;;;15.90;99.90;;;;;;5093691;28;20103;-84
2023/05/19 08:40:26;;;;;;;0.38;0.20;;;16.10;99.90;;;;;;5093664;28;20023;-84
2023/05/19 08:42:52;;;;;;;0.15;0.15;;;16.00;99.90;;;;;;5092405;28;20055;-84
2023/05/19 08:45:18;;;;;;;0.32;0.32;;;16.10;99.90;;;;;;5093155;28;20020;-84
2023/05/19 08:47:50;;;;;;;0.20;0.20;;;16.00;99.90;;;;;;5092337;28;20039;-85
2023/05/19 08:50:29;;;;;;;0.43;0.43;;;16.00;99.90;;;;;;5092924;28;20524;-84
2023/05/19 08:53:03;;;;;;;0.52;0.52;;;16.10;99.90;;;;;;5093301;28;20039;-84
2023/05/19 08:55:52;;;;;;;0.50;0.30;;;16.30;99.90;;;;;;5093165;28;20039;-84
2023/05/19 08:58:21;;;;;;;0.20;0.20;;;16.40;99.90;;;;;;5093243;28;20389;-85
2023/05/19 09:00:47;;;;;;;0.65;0.43;;;16.20;99.90;;;;;;5093013;28;20412;-84
2023/05/19 09:03:14;;;;;;;0.10;0.10;;;16.30;99.90;;;;;;5092943;28;20028;-84
2023/05/19 09:05:41;;;;;;;0.10;0.10;;;16.50;99.90;;;;;;5092587;28;20028;-85
2023/05/19 09:08:07;;;;;;;0.73;0.73;;;16.80;99.90;;;;;;5093301;28;20028;-84
2023/05/19 09:10:32;;;;;;;0.10;0.10;;;16.90;99.90;;;;;;5092827;28;20059;-85
2023/05/19 09:12:58;;;;;;;0.55;0.30;;;16.80;99.90;;;;;;5092885;28;20080;-84
2023/05/19 09:15:27;;;;;;;0.60;0.60;;;16.80;99.90;;;;;;5092776;28;20035;-84
2023/05/19 09:18:09;;;;;;;0.35;0.35;;;16.80;99.90;;;;;;5092702;28;20036;-84
2023/05/19 09:20:43;;;;;;;0.22;0.22;;;17.00;99.90;;;;;;5092686;28;20043;-84
2023/05/19 09:23:17;;;;;;;0.77;0.45;;;17.00;99.90;;;;;;5091459;28;20024;-84
2023/05/19 09:25:50;;;;;;;0.57;0.57;;;16.90;99.90;;;;;;5092667;28;20099;-85
2023/05/19 09:28:35;;;;;;;0.55;0.55;;;16.80;99.90;;;;;;5092486;28;20068;-84
2023/05/19 09:31:10;;;;;;;0.40;0.40;;;17.00;99.90;;;;;;5092112;28;20028;-85
2023/05/19 09:33:37;;;;;;;0.25;0.25;;;17.40;99.90;;;;;;5092486;28;20059;-85
2023/05/19 09:36:07;;;;;;;0.40;0.40;;;17.50;99.90;;;;;;5092558;28;20078;-84
2023/05/19 09:38:34;;;;;;;0.35;0.35;;;17.70;99.90;;;;;;5092816;28;20483;-84
2023/05/19 09:41:00;;;;;;;0.30;0.30;;;17.70;99.90;;;;;;5092496;28;20027;-84
2023/05/19 09:43:32;;;;;;;0.38;0.20;;;17.90;99.90;;;;;;5092212;28;20040;-84
2023/05/19 09:46:08;;;;;;;0.70;0.30;;;17.80;99.90;;;;;;5091846;28;20470;-84
2023/05/19 09:48:35;;;;;;;0.40;0.40;;;17.70;99.90;;;;;;5091372;28;20021;-84
2023/05/19 09:51:06;;;;;;;1.23;1.10;;;17.70;99.90;;;;;;5092402;28;20534;-84
2023/05/19 09:53:33;;;;;;;0.22;0.22;;;18.10;99.90;;;;;;5092118;28;20035;-84
2023/05/19 09:56:00;;;;;;;0.35;0.35;;;17.90;99.90;;;;;;5092185;28;20024;-84
2023/05/19 09:58:30;;;;;;;5.70;1.50;;;17.70;99.90;;;;;;5092184;28;20489;-84
2023/05/19 10:00:58;;;;;;;0.73;0.60;;;18.00;99.90;;;;;;5090931;28;20075;-84
2023/05/19 10:03:25;;;;;;;0.40;0.40;;;18.30;99.90;;;;;;5090919;28;20034;-84
2023/05/19 10:05:52;;;;;;;1.38;0.63;;;18.20;99.90;;;;;;5092008;28;20032;-84
2023/05/19 10:08:18;;;;;;;0.77;0.15;;;18.30;99.90;;;;;;5092538;28;20107;-84
2023/05/19 10:10:47;;;;;;;0.28;0.28;;;18.20;99.90;;;;;;5092093;28;20433;-84
2023/05/19 10:13:13;;;;;;;0.28;0.28;;;18.10;99.90;;;;;;5092918;28;20430;-84
2023/05/19 10:15:42;;;;;;;0.30;0.30;;;18.40;99.90;;;;;;5091663;28;20099;-84
2023/05/19 10:18:11;;;;;;;0.13;0.13;;;19.00;99.90;;;;;;5092391;28;20107;-84
2023/05/19 10:20:38;;;;;;;0.30;0.30;;;18.80;99.90;;;;;;5091891;28;20132;-84
2023/05/19 10:23:04;;;;;;;0.50;0.50;;;18.80;99.90;;;;;;5091955;28;20035;-84
2023/05/19 10:25:32;;;;;;;0.75;0.75;;;18.60;99.90;;;;;;5092064;28;20091;-84
2023/05/19 10:28:12;;;;;;;0.10;0.10;;;18.80;99.90;;;;;;5091780;28;20028;-84
2023/05/19 10:30:45;;;;;;;0.22;0.22;;;19.20;99.90;;;;;;5092231;28;20099;-84
2023/05/19 10:33:15;;;;;;;1.27;0.85;;;19.50;99.90;;;;;;5091777;28;20441;-84
2023/05/19 10:35:53;;;;;;;0.15;0.15;;;19.50;99.90;;;;;;5091871;28;20021;-84
2023/05/19 10:38:37;;;;;;;0.20;0.20;;;19.50;99.90;;;;;;5091758;28;20487;-84
2023/05/19 10:41:09;;;;;;;0.10;0.10;;;19.40;99.90;;;;;;5092003;28;20032;-84
2023/05/19 10:44:02;;;;;;;0.38;0.38;;;19.40;99.90;;;;;;5091625;28;20446;-84
2023/05/19 10:46:29;;;;;;;0.10;0.10;;;19.40;99.90;;;;;;5092187;28;20028;-85
2023/05/19 10:48:55;;;;;;;0.57;0.57;;;19.50;99.90;;;;;;5091603;28;20024;-84
2023/05/19 10:51:30;;;;;;;0.55;0.40;;;19.70;99.90;;;;;;5091732;28;20161;-85
2023/05/19 10:53:57;;;;;;;0.40;0.40;;;19.60;99.90;;;;;;5091954;28;20043;-84
2023/05/19 10:56:34;;;;;;;0.25;0.25;;;19.50;99.90;;;;;;5091728;28;20123;-85
2023/05/19 10:59:01;;;;;;;0.20;0.20;;;19.60;99.90;;;;;;5091361;28;20392;-85
2023/05/19 11:01:34;;;;;;;6.03;0.50;;;19.50;99.90;;;;;;5091564;28;20020;-85
2023/05/19 11:04:10;;;;;;;0.55;0.45;;;19.50;99.90;;;;;;5092023;28;20024;-85
2023/05/19 11:06:37;;;;;;;0.28;0.28;;;19.50;99.90;;;;;;5091532;28;20103;-84
2023/05/19 11:09:17;;;;;;;0.10;0.10;;;19.70;99.90;;;;;;5091643;28;20082;-85
2023/05/19 11:11:47;;;;;;;0.35;0.35;;;19.90;99.90;;;;;;5092215;28;20074;-83
2023/05/19 11:14:16;;;;;;;0.30;0.30;;;19.80;99.90;;;;;;5095094;28;20028;-84
2023/05/19 11:16:45;;;;;;;1.65;0.40;;;20.30;99.90;;;;;;5095239;28;20059;-84
2023/05/19 11:19:26;;;;;;;0.40;0.40;;;20.50;99.90;;;;;;5095201;28;20039;-85
2023/05/19 11:21:56;;;;;;;0.55;0.30;;;20.90;99.90;;;;;;5094868;28;20066;-84
2023/05/19 11:24:44;;;;;;;0.20;0.20;;;21.00;99.90;;;;;;5093636;28;20137;-85
2023/05/19 11:27:29;;;;;;;0.28;0.20;;;20.50;99.90;;;;;;5094353;28;20020;-84
2023/05/19 11:29:58;;;;;;;0.20;0.20;;;20.30;99.90;;;;;;5095220;28;20031;-84
2023/05/19 11:32:34;;;;;;;0.20;0.20;;;20.20;99.90;;;;;;5094706;28;20016;-85
2023/05/19 11:35:01;;;;;;;0.40;0.40;;;20.30;99.90;;;;;;5094655;28;20027;-85
2023/05/19 11:37:30;;;;;;;0.17;0.17;;;20.40;99.90;;;;;;5094565;28;20511;-84
2023/05/19 11:40:00;;;;;;;0.30;0.30;;;20.30;99.90;;;;;;5094597;28;20521;-85
2023/05/19 11:42:25;;;;;;;0.10;0.10;;;20.30;99.90;;;;;;5094494;28;20077;-85
2023/05/19 11:44:54;;;;;;;0.10;0.10;;;19.90;99.90;;;;;;5094551;28;20032;-85
2023/05/19 11:47:20;;;;;;;0.55;0.20;;;20.00;99.90;;;;;;5093065;28;20111;-85
2023/05/19 11:49:53;;;;;;;0.10;0.10;;;20.10;99.90;;;;;;5094506;28;20052;-85
2023/05/19 11:52:23;;;;;;;0.30;0.30;;;20.20;99.90;;;;;;5094385;28;20028;-85
2023/05/19 11:54:49;;;;;;;0.22;0.22;;;20.20;99.90;;;;;;5094655;28;20032;-85
2023/05/19 11:57:16;;;;;;;0.10;0.10;;;20.10;99.90;;;;;;5094292;28;20021;-84
2023/05/19 11:59:46;;;;;;;0.20;0.20;;;20.40;99.90;;;;;;5094364;28;20028;-84
2023/05/19 12:02:26;;;;;;;0.30;0.17;;;20.40;99.90;;;;;;5094219;28;20025;-85
2023/05/19 12:04:52;;;;;;;0.20;0.20;;;20.40;99.90;;;;;;5094062;28;20056;-84
2023/05/19 12:07:21;;;;;;;0.20;0.20;;;20.30;99.90;;;;;;5094166;28;20099;-84
2023/05/19 12:09:48;;;;;;;0.13;0.13;;;20.30;99.90;;;;;;5093512;28;20036;-83
2023/05/19 12:12:16;;;;;;;0.10;0.10;;;20.40;99.90;;;;;;5093929;28;20012;-83
2023/05/19 12:14:42;;;;;;;0.52;0.43;;;20.40;99.90;;;;;;5094120;28;20503;-82
2023/05/19 12:17:17;;;;;;;0.20;0.20;;;20.40;99.90;;;;;;5093773;28;20043;-83
2023/05/19 12:19:43;;;;;;;0.32;0.32;;;20.20;99.90;;;;;;5093705;28;20507;-83
2023/05/19 12:22:09;;;;;;;0.20;0.20;;;20.10;99.90;;;;;;5093818;28;20035;-83
2023/05/19 12:24:36;;;;;;;0.63;0.43;;;20.00;99.90;;;;;;5092728;28;20028;-83
2023/05/19 12:27:21;;;;;;;0.45;0.45;;;20.10;99.90;;;;;;5093697;28;20040;-83
2023/05/19 12:29:53;;;;;;;0.20;0.20;;;20.20;99.90;;;;;;5093489;28;20039;-83
2023/05/19 12:32:24;;;;;;;0.10;0.10;;;20.10;99.90;;;;;;5094018;28;20077;-82
2023/05/19 12:34:50;;;;;;;0.43;0.40;;;20.30;99.90;;;;;;5093469;28;20043;-82
2023/05/19 12:37:16;;;;;;;0.08;0.08;;;20.20;99.90;;;;;;5093414;28;20062;-84
2023/05/19 12:39:42;;;;;;;0.03;0.03;;;20.00;99.90;;;;;;5093094;28;20032;-83
2023/05/19 12:42:08;;;;;;;0.30;0.30;;;19.90;99.90;;;;;;5093555;28;20025;-83
2023/05/19 12:44:53;;;;;;;0.10;0.10;;;20.10;99.90;;;;;;5093760;28;20024;-83
2023/05/19 12:47:19;;;;;;;0.10;0.10;;;19.90;99.90;;;;;;5093614;28;20024;-83
2023/05/19 12:50:05;;;;;;;0.10;0.10;;;19.80;99.90;;;;;;5093142;28;20501;-83
2023/05/19 12:52:34;;;;;;;0.10;0.10;;;19.90;99.90;;;;;;5093194;28;20047;-83
2023/05/19 12:55:06;;;;;;;0.95;0.63;;;19.40;99.90;;;;;;5092701;28;20032;-83